Time;durP1;ratioP1;P1;durP2;ratioP2;P2;SDS_P1;SDS_P2;PMS_P1;PMS_P2;Temp;Humidity;BMP_temperature;BMP_pressure;BME280_temperature;BME280_humidity;BME280_pressure;Samples;Min_cycle;Max_cycle;Signal;HPM_P1;HPM_P2
2023/01/27 00:01:57;;;;;;;0.00;0.00;;;;;;;-146.30;100.00;58188.94;10438793;28;20133;-83
2023/01/27 00:06:58;;;;;;;0.10;0.10;;;;;;;-146.30;100.00;58188.94;10470856;28;20083;-84
2023/01/27 00:17:20;;;;;;;0.00;0.00;;;;;;;-146.30;100.00;58188.94;10447333;28;20079;-83
2023/01/27 00:27:42;;;;;;;0.00;0.00;;;;;;;-146.30;100.00;58188.94;10469302;28;20411;-83
2023/01/27 00:38:04;;;;;;;1.25;0.20;;;;;;;-146.30;100.00;58188.94;10445184;28;20382;-82
2023/01/27 00:43:06;;;;;;;5.13;2.53;;;;;;;-146.30;100.00;58188.94;10457364;28;20065;-84
2023/01/27 00:48:08;;;;;;;1.38;0.57;;;;;;;-146.30;100.00;58188.94;10478600;28;20050;-82
2023/01/27 00:53:09;;;;;;;0.00;0.00;;;;;;;-146.30;100.00;58188.94;10457997;28;20056;-83
2023/01/27 00:58:11;;;;;;;0.30;0.10;;;;;;;-146.30;100.00;58188.94;10461650;28;20057;-83
2023/01/27 01:03:12;;;;;;;0.10;0.10;;;;;;;-146.30;100.00;58188.94;10445115;28;20049;-83
2023/01/27 01:08:15;;;;;;;0.70;0.45;;;;;;;-146.30;100.00;58188.94;10486331;28;20044;-83
2023/01/27 01:13:17;;;;;;;2.63;1.45;;;;;;;-146.30;100.00;58188.94;10453371;28;20400;-83
2023/01/27 01:18:20;;;;;;;8.95;1.25;;;;;;;-146.30;100.00;58188.94;10442938;28;20045;-84
2023/01/27 01:23:21;;;;;;;5.57;1.25;;;;;;;-146.30;100.00;58188.94;10451581;28;20060;-83
2023/01/27 01:28:24;;;;;;;1.50;0.93;;;;;;;-146.30;100.00;58188.94;10435011;28;20052;-83
2023/01/27 01:33:25;;;;;;;0.65;0.10;;;;;;;-146.30;100.00;58188.94;10444275;28;20084;-84
2023/01/27 01:38:27;;;;;;;0.52;0.32;;;;;;;-146.30;100.00;58188.94;10472650;28;20111;-82
2023/01/27 01:43:29;;;;;;;0.00;0.00;;;;;;;-146.30;100.00;58188.94;10450386;28;20041;-83
2023/01/27 01:48:41;;;;;;;0.00;0.00;;;;;;;-146.30;100.00;58188.94;10439332;28;20064;-82
2023/01/27 01:53:47;;;;;;;0.22;0.22;;;;;;;-146.30;100.00;58188.94;10416698;28;20072;-82
2023/01/27 01:58:50;;;;;;;0.00;0.00;;;;;;;-146.30;100.00;58188.94;10496117;28;20048;-83
2023/01/27 02:03:57;;;;;;;0.43;0.43;;;;;;;-146.30;100.00;58188.94;10440859;28;20123;-83
2023/01/27 02:08:59;;;;;;;0.63;0.60;;;;;;;-146.30;100.00;58188.94;10462231;28;20053;-83
2023/01/27 02:14:02;;;;;;;0.00;0.00;;;;;;;-146.30;100.00;58188.94;10461622;28;20052;-82
2023/01/27 02:19:04;;;;;;;1.13;1.02;;;;;;;-146.30;100.00;58188.94;10463038;28;20056;-82
2023/01/27 02:24:11;;;;;;;0.45;0.45;;;;;;;-146.30;100.00;58188.94;10449462;28;20029;-83
2023/01/27 02:29:14;;;;;;;0.03;0.03;;;;;;;-146.30;100.00;58188.94;10433439;28;20397;-84
2023/01/27 02:34:20;;;;;;;0.00;0.00;;;;;;;-146.30;100.00;58188.94;10445045;28;20136;-83
2023/01/27 02:39:28;;;;;;;0.15;0.15;;;;;;;-146.30;100.00;58188.94;10443296;28;20048;-84
2023/01/27 02:44:31;;;;;;;0.22;0.20;;;;;;;-146.30;100.00;58188.94;10438418;28;20044;-82
2023/01/27 02:49:33;;;;;;;2.53;0.22;;;;;;;-146.30;100.00;58188.94;10438853;28;20535;-83
2023/01/27 02:54:36;;;;;;;0.35;0.35;;;;;;;-146.30;100.00;58188.94;10438570;28;20049;-84
2023/01/27 02:59:37;;;;;;;0.57;0.57;;;;;;;-146.30;100.00;58188.94;10437855;28;20451;-83
2023/01/27 03:04:39;;;;;;;0.90;0.65;;;;;;;-146.30;100.00;58188.94;10444752;28;20041;-83
2023/01/27 03:09:41;;;;;;;0.90;0.75;;;;;;;-146.30;100.00;58188.94;10454576;28;20086;-84
2023/01/27 03:20:03;;;;;;;0.20;0.20;;;;;;;-146.30;100.00;58188.94;10454493;28;20041;-83
2023/01/27 03:25:08;;;;;;;2.08;1.02;;;;;;;-146.30;100.00;58188.94;10452022;28;20528;-83
2023/01/27 03:30:10;;;;;;;0.68;0.47;;;;;;;-146.30;100.00;58188.94;10438825;28;20037;-83
2023/01/27 03:35:22;;;;;;;1.45;0.35;;;;;;;-146.30;100.00;58188.94;10441567;28;20094;-83
2023/01/27 03:51:10;;;;;;;0.47;0.43;;;;;;;-146.30;100.00;58188.94;10475962;28;20529;-84
2023/01/27 03:56:12;;;;;;;5.28;0.38;;;;;;;-146.30;100.00;58188.94;10453430;28;20053;-83
2023/01/27 04:01:21;;;;;;;0.30;0.30;;;;;;;-146.30;100.00;58188.94;10421469;28;20068;-83
2023/01/27 04:11:59;;;;;;;1.27;0.95;;;;;;;-146.30;100.00;58188.94;10462935;28;20045;-83
2023/01/27 04:17:06;;;;;;;0.05;0.05;;;;;;;-146.30;100.00;58188.94;10441422;28;20475;-83
2023/01/27 04:22:10;;;;;;;0.20;0.20;;;;;;;-146.30;100.00;58188.94;10438106;28;20465;-83
2023/01/27 04:27:14;;;;;;;0.10;0.10;;;;;;;-146.30;100.00;58188.94;10434861;28;20048;-83
2023/01/27 04:32:16;;;;;;;0.15;0.15;;;;;;;-146.30;100.00;58188.94;10440955;28;20048;-83
2023/01/27 04:37:17;;;;;;;0.13;0.13;;;;;;;-146.30;100.00;58188.94;10479323;28;20044;-83
2023/01/27 04:42:19;;;;;;;3.30;0.80;;;;;;;-146.30;100.00;58188.94;10452154;28;20106;-83
2023/01/27 04:47:21;;;;;;;0.32;0.32;;;;;;;-146.30;100.00;58188.94;10463152;28;20079;-83
2023/01/27 04:52:24;;;;;;;1.75;0.68;;;;;;;-146.30;100.00;58188.94;10426925;28;20048;-83
2023/01/27 04:57:26;;;;;;;1.10;0.20;;;;;;;-146.30;100.00;58188.94;10452844;28;20056;-83
2023/01/27 05:02:28;;;;;;;1.98;0.30;;;;;;;-146.30;100.00;58188.94;10442030;28;20061;-81
2023/01/27 05:07:30;;;;;;;0.55;0.55;;;;;;;-146.30;100.00;58188.94;10445631;28;20041;-81
2023/01/27 05:12:32;;;;;;;0.75;0.52;;;;;;;-146.30;100.00;58188.94;10432948;28;20052;-81
2023/01/27 05:17:34;;;;;;;0.00;0.00;;;;;;;-146.30;100.00;58188.94;10450961;28;20045;-81
2023/01/27 05:22:36;;;;;;;0.15;0.15;;;;;;;-146.30;100.00;58188.94;10446866;28;20091;-81
2023/01/27 05:27:38;;;;;;;0.35;0.35;;;;;;;-146.30;100.00;58188.94;10464520;28;20049;-81
2023/01/27 05:32:39;;;;;;;0.85;0.52;;;;;;;-146.30;100.00;58188.94;10443496;28;20106;-80
2023/01/27 05:37:41;;;;;;;0.20;0.20;;;;;;;-146.30;100.00;58188.94;10471314;28;20102;-81
2023/01/27 05:42:43;;;;;;;0.45;0.43;;;;;;;-146.30;100.00;58188.94;10436189;28;20067;-81
2023/01/27 05:47:50;;;;;;;1.15;1.05;;;;;;;-146.30;100.00;58188.94;10434727;28;20045;-81
2023/01/27 05:52:51;;;;;;;2.15;0.70;;;;;;;-146.30;100.00;58188.94;10454720;28;20507;-80
2023/01/27 05:57:53;;;;;;;0.43;0.25;;;;;;;-146.30;100.00;58188.94;10446714;28;20103;-82
2023/01/27 06:02:55;;;;;;;0.68;0.52;;;;;;;-146.30;100.00;58188.94;10432479;28;20102;-82
2023/01/27 06:07:56;;;;;;;0.52;0.52;;;;;;;-146.30;100.00;58188.94;10456703;28;20041;-82
2023/01/27 06:12:59;;;;;;;0.10;0.10;;;;;;;-146.30;100.00;58188.94;10467758;28;20048;-83
2023/01/27 06:18:01;;;;;;;0.17;0.10;;;;;;;-146.30;100.00;58188.94;10458388;28;20040;-82
2023/01/27 06:23:03;;;;;;;0.10;0.10;;;;;;;-146.30;100.00;58188.94;10461551;28;20091;-83
2023/01/27 06:28:05;;;;;;;0.10;0.10;;;;;;;-146.30;100.00;58188.94;10448155;28;20041;-83
2023/01/27 06:33:11;;;;;;;0.35;0.15;;;;;;;-146.30;100.00;58188.94;10441447;28;20499;-83
2023/01/27 06:38:15;;;;;;;0.75;0.35;;;;;;;-146.30;100.00;58188.94;10447406;28;20050;-82
2023/01/27 06:43:17;;;;;;;0.13;0.13;;;;;;;-146.30;100.00;58188.94;10443127;28;20052;-82
2023/01/27 06:48:19;;;;;;;0.10;0.05;;;;;;;-146.30;100.00;58188.94;10458810;28;20530;-82
2023/01/27 06:53:21;;;;;;;2.40;0.73;;;;;;;-146.30;100.00;58188.94;10439376;28;20052;-82
2023/01/27 06:58:23;;;;;;;0.75;0.43;;;;;;;-146.30;100.00;58188.94;10461172;28;20044;-84
2023/01/27 07:03:25;;;;;;;0.05;0.05;;;;;;;-146.30;100.00;58188.94;10442241;28;20102;-84
2023/01/27 07:08:26;;;;;;;0.00;0.00;;;;;;;-146.30;100.00;58188.94;10438953;28;20087;-85
2023/01/27 07:13:28;;;;;;;0.00;0.00;;;;;;;-146.30;100.00;58188.94;10460018;28;20036;-84
2023/01/27 07:18:30;;;;;;;0.82;0.80;;;;;;;-146.30;100.00;58188.94;10477057;28;20428;-84
2023/01/27 07:23:31;;;;;;;0.00;0.00;;;;;;;-146.30;100.00;58188.94;10432715;28;20224;-85
2023/01/27 07:28:33;;;;;;;1.13;0.30;;;;;;;-146.30;100.00;58188.94;10421948;28;20056;-84
2023/01/27 07:33:36;;;;;;;0.10;0.10;;;;;;;-146.30;100.00;58188.94;10420707;28;20046;-86
2023/01/27 07:38:37;;;;;;;0.13;0.13;;;;;;;-146.30;100.00;58188.94;10423613;28;20403;-85
2023/01/27 07:43:39;;;;;;;0.40;0.32;;;;;;;-146.30;100.00;58188.94;10452930;28;20048;-87
2023/01/27 07:48:41;;;;;;;0.10;0.10;;;;;;;-146.30;100.00;58188.94;10409802;28;20075;-85
2023/01/27 07:53:43;;;;;;;0.10;0.10;;;;;;;-146.30;100.00;58188.94;10448706;28;20076;-85
2023/01/27 07:58:45;;;;;;;0.32;0.28;;;;;;;-146.30;100.00;58188.94;10421626;28;20485;-85
2023/01/27 08:03:47;;;;;;;0.00;0.00;;;;;;;-146.30;100.00;58188.94;10437600;28;20133;-84
2023/01/27 08:09:20;;;;;;;0.00;0.00;;;;;;;-146.30;100.00;58188.94;10423648;28;20052;-84
2023/01/27 08:14:21;;;;;;;1.58;1.48;;;;;;;-146.30;100.00;58188.94;10432366;28;20044;-85
2023/01/27 08:19:23;;;;;;;0.00;0.00;;;;;;;-146.30;100.00;58188.94;10438317;28;20055;-86
2023/01/27 08:24:24;;;;;;;0.38;0.38;;;;;;;-146.30;100.00;58188.94;10434246;28;20045;-86
2023/01/27 08:29:28;;;;;;;0.00;0.00;;;;;;;-146.30;100.00;58188.94;10464633;28;20080;-87
2023/01/27 08:34:30;;;;;;;0.30;0.30;;;;;;;-146.30;100.00;58188.94;10444052;28;20048;-85
2023/01/27 08:39:32;;;;;;;0.13;0.13;;;;;;;-146.30;100.00;58188.94;10440398;28;20053;-86
2023/01/27 08:44:34;;;;;;;0.50;0.50;;;;;;;-146.30;100.00;58188.94;10450955;28;20066;-85
2023/01/27 08:49:36;;;;;;;0.68;0.22;;;;;;;-146.30;100.00;58188.94;10429218;28;20045;-84
2023/01/27 08:54:37;;;;;;;0.00;0.00;;;;;;;-146.30;100.00;58188.94;10443599;28;20041;-85
2023/01/27 08:59:39;;;;;;;1.27;0.85;;;;;;;-146.30;100.00;58188.94;10470593;28;20078;-85
2023/01/27 09:04:43;;;;;;;0.52;0.20;;;;;;;-146.30;100.00;58188.94;10463066;28;20049;-85
2023/01/27 09:09:46;;;;;;;0.28;0.28;;;;;;;-146.30;100.00;58188.94;10452074;28;20072;-85
2023/01/27 09:14:47;;;;;;;0.22;0.22;;;;;;;-146.30;100.00;58188.94;10464210;28;20075;-87
2023/01/27 09:19:50;;;;;;;0.17;0.17;;;;;;;-146.30;100.00;58188.94;10475132;28;20033;-84
2023/01/27 09:24:52;;;;;;;0.00;0.00;;;;;;;-146.30;100.00;58188.94;10445993;28;20140;-85
2023/01/27 09:29:53;;;;;;;0.13;0.13;;;;;;;-146.30;100.00;58188.94;10463524;28;20045;-85
2023/01/27 09:34:55;;;;;;;0.00;0.00;;;;;;;-146.30;100.00;58188.94;10450219;28;20048;-86
2023/01/27 09:40:01;;;;;;;0.00;0.00;;;;;;;-146.30;100.00;58188.94;10442849;28;20049;-84
2023/01/27 09:45:35;;;;;;;2.05;0.55;;;;;;;-146.30;100.00;58188.94;10441006;28;20049;-85
2023/01/27 09:51:03;;;;;;;0.00;0.00;;;;;;;-146.30;100.00;58188.94;10430027;28;20053;-86
2023/01/27 09:56:19;;;;;;;0.05;0.05;;;;;;;-146.30;100.00;58188.94;10414243;28;20063;-85
2023/01/27 10:01:45;;;;;;;1.23;0.35;;;;;;;-146.30;100.00;58188.94;10442499;28;20045;-84
2023/01/27 10:07:13;;;;;;;0.73;0.38;;;;;;;-146.30;100.00;58188.94;10442355;28;20055;-86
2023/01/27 10:12:33;;;;;;;0.00;0.00;;;;;;;-146.30;100.00;58188.94;10433479;28;20068;-84
2023/01/27 10:17:41;;;;;;;;;;;;;;;-146.30;100.00;58188.94;10454426;28;20040;-85
2023/01/27 10:22:57;;;;;;;0.00;0.00;;;;;;;-146.30;100.00;58188.94;10423475;28;19967;-84
2023/01/27 10:28:07;;;;;;;0.00;0.00;;;;;;;-146.30;100.00;58188.94;10401061;28;20485;-84
2023/01/27 10:33:21;;;;;;;0.85;0.63;;;;;;;-146.30;100.00;58188.94;10416525;28;20065;-85
2023/01/27 10:38:30;;;;;;;0.10;0.10;;;;;;;-146.30;100.00;58188.94;10436579;28;20045;-85
2023/01/27 10:43:48;;;;;;;0.43;0.43;;;;;;;-146.30;100.00;58188.94;10404249;28;20409;-82
2023/01/27 10:49:29;;;;;;;0.32;0.25;;;;;;;-146.30;100.00;58188.94;10450131;28;20052;-83
2023/01/27 10:54:37;;;;;;;0.25;0.10;;;;;;;-146.30;100.00;58188.94;10384385;28;20049;-84
2023/01/27 10:59:50;;;;;;;0.32;0.32;;;;;;;-146.30;100.00;58188.94;10432762;28;20565;-85
2023/01/27 11:11:46;;;;;;;0.20;0.20;;;;;;;-146.30;100.00;58188.94;10464042;28;20055;-84
2023/01/27 11:16:57;;;;;;;0.10;0.10;;;;;;;-146.30;100.00;58188.94;10455104;28;20047;-85
2023/01/27 11:21:59;;;;;;;0.10;0.10;;;;;;;-146.30;100.00;58188.94;10479566;28;20063;-84
2023/01/27 11:27:23;;;;;;;0.13;0.13;;;;;;;-146.30;100.00;58188.94;10489174;28;20047;-86
2023/01/27 11:32:33;;;;;;;1.08;0.47;;;;;;;-146.30;100.00;58188.94;10492528;28;20048;-86
2023/01/27 11:37:39;;;;;;;0.55;0.43;;;;;;;-146.30;100.00;58188.94;10492396;28;20060;-84
2023/01/27 11:42:40;;;;;;;0.98;0.47;;;;;;;-146.30;100.00;58188.94;10462216;28;20084;-86
2023/01/27 11:47:44;;;;;;;0.22;0.20;;;;;;;-146.30;100.00;58188.94;10478679;28;20119;-84
2023/01/27 11:52:55;;;;;;;0.35;0.28;;;;;;;-146.30;100.00;58188.94;10478668;28;20154;-84
2023/01/27 11:58:05;;;;;;;0.47;0.22;;;;;;;-146.30;100.00;58188.94;10480001;28;20056;-84
2023/01/27 12:03:23;;;;;;;0.32;0.32;;;;;;;-146.30;100.00;58188.94;10492139;28;20495;-84
2023/01/27 12:08:42;;;;;;;0.00;0.00;;;;;;;-146.30;100.00;58188.94;10463569;28;20522;-84
2023/01/27 12:14:03;;;;;;;1.40;0.60;;;;;;;-146.30;100.00;58188.94;10463354;28;20045;-85
2023/01/27 12:19:20;;;;;;;0.70;0.28;;;;;;;-146.30;100.00;58188.94;10478392;28;20048;-86
2023/01/27 12:24:54;;;;;;;0.17;0.17;;;;;;;-146.30;100.00;58188.94;10467091;28;20044;-85
2023/01/27 12:30:01;;;;;;;0.10;0.10;;;;;;;-146.30;100.00;58188.94;10478283;28;20044;-86
2023/01/27 12:35:36;;;;;;;0.40;0.35;;;;;;;-146.30;100.00;58188.94;10486430;28;20063;-86
2023/01/27 12:40:43;;;;;;;0.10;0.10;;;;;;;-146.30;100.00;58188.94;10492345;28;20458;-86
2023/01/27 12:46:27;;;;;;;0.17;0.10;;;;;;;-146.30;100.00;58188.94;10509905;28;20047;-84
2023/01/27 13:05:16;;;;;;;0.35;0.35;;;;;;;-146.30;100.00;58188.94;10497017;28;20044;-85
2023/01/27 13:10:24;;;;;;;0.10;0.10;;;;;;;-146.30;100.00;58188.94;10477818;28;20048;-85
2023/01/27 13:15:31;;;;;;;0.52;0.35;;;;;;;-146.30;100.00;58188.94;10477709;28;20050;-84
2023/01/27 13:20:50;;;;;;;0.13;0.13;;;;;;;-146.30;100.00;58188.94;10465417;28;20052;-84
2023/01/27 13:26:00;;;;;;;0.55;0.55;;;;;;;-146.30;100.00;58188.94;10475110;28;20044;-85
2023/01/27 13:31:09;;;;;;;0.05;0.03;;;;;;;-146.30;100.00;58188.94;10483888;28;20048;-85
2023/01/27 13:36:11;;;;;;;0.13;0.13;;;;;;;-146.30;100.00;58188.94;10482727;28;20407;-84
2023/01/27 13:41:24;;;;;;;0.10;0.10;;;;;;;-146.30;100.00;58188.94;10484389;28;20056;-85
2023/01/27 13:46:31;;;;;;;0.05;0.05;;;;;;;-146.30;100.00;58188.94;10487170;28;20045;-84
2023/01/27 13:51:34;;;;;;;1.30;0.80;;;;;;;-146.30;100.00;58188.94;10468162;28;20041;-83
2023/01/27 13:56:52;;;;;;;0.08;0.05;;;;;;;-146.30;100.00;58188.94;10483670;28;20052;-84
2023/01/27 14:02:28;;;;;;;0.40;0.28;;;;;;;-146.30;100.00;58188.94;10469307;28;20036;-84
2023/01/27 14:07:47;;;;;;;2.15;0.40;;;;;;;-146.30;100.00;58188.94;10475526;28;20070;-84
2023/01/27 14:13:20;;;;;;;0.63;0.45;;;;;;;-146.30;100.00;58188.94;10497769;28;20048;-86
2023/01/27 14:18:28;;;;;;;0.10;0.10;;;;;;;-146.30;100.00;58188.94;10457189;28;20465;-86
2023/01/27 14:24:00;;;;;;;0.20;0.20;;;;;;;-146.30;100.00;58188.94;10491919;28;20507;-85
2023/01/27 14:29:13;;;;;;;0.00;0.00;;;;;;;-146.30;100.00;58188.94;10517191;28;20477;-84
2023/01/27 14:34:37;;;;;;;0.00;0.00;;;;;;;-146.30;100.00;58188.94;10486708;28;20482;-84
2023/01/27 14:39:59;;;;;;;0.13;0.13;;;;;;;-146.30;100.00;58188.94;10483835;28;20052;-84
2023/01/27 14:45:20;;;;;;;0.00;0.00;;;;;;;-146.30;100.00;58188.94;10524182;28;20051;-84
2023/01/27 14:50:42;;;;;;;0.00;0.00;;;;;;;-146.30;100.00;58188.94;10493585;28;20483;-83
2023/01/27 14:55:55;;;;;;;0.30;0.30;;;;;;;-146.30;100.00;58188.94;10457930;28;20044;-83
2023/01/27 15:01:06;;;;;;;1.38;0.38;;;;;;;-146.30;100.00;58188.94;10482177;28;20079;-85
2023/01/27 15:06:20;;;;;;;0.20;0.20;;;;;;;-146.30;100.00;58188.94;10500140;28;20083;-83
2023/01/27 15:11:31;;;;;;;0.08;0.08;;;;;;;-146.30;100.00;58188.94;10442839;28;20044;-83
2023/01/27 15:16:51;;;;;;;0.00;0.00;;;;;;;-146.30;100.00;58188.94;10482481;28;20094;-84
2023/01/27 15:21:56;;;;;;;0.00;0.00;;;;;;;-146.30;100.00;58188.94;10481633;28;20487;-85
2023/01/27 15:26:59;;;;;;;0.22;0.17;;;;;;;-146.30;100.00;58188.94;10465617;28;20469;-84
2023/01/27 15:32:16;;;;;;;3.20;0.82;;;;;;;-146.30;100.00;58188.94;10483357;28;20045;-84
2023/01/27 15:37:24;;;;;;;0.30;0.15;;;;;;;-146.30;100.00;58188.94;10464210;28;20044;-84
2023/01/27 15:42:45;;;;;;;0.30;0.30;;;;;;;-146.30;100.00;58188.94;10481690;28;20044;-84
2023/01/27 15:48:05;;;;;;;0.20;0.20;;;;;;;-146.30;100.00;58188.94;10480762;28;20040;-85
2023/01/27 15:53:15;;;;;;;0.38;0.35;;;;;;;-146.30;100.00;58188.94;10481427;28;20048;-84
2023/01/27 15:58:39;;;;;;;0.30;0.30;;;;;;;-146.30;100.00;58188.94;10475528;28;20392;-85
2023/01/27 16:03:46;;;;;;;0.20;0.10;;;;;;;-146.30;100.00;58188.94;10481402;28;20508;-84
2023/01/27 16:09:07;;;;;;;0.20;0.20;;;;;;;-146.30;100.00;58188.94;10474146;28;20056;-83
2023/01/27 16:14:37;;;;;;;0.00;0.00;;;;;;;-146.30;100.00;58188.94;10464544;28;20182;-84
2023/01/27 16:19:47;;;;;;;0.52;0.52;;;;;;;-146.30;100.00;58188.94;10459942;28;20403;-84
2023/01/27 16:24:57;;;;;;;0.00;0.00;;;;;;;-146.30;100.00;58188.94;10540017;28;20072;-84
2023/01/27 16:30:30;;;;;;;0.00;0.00;;;;;;;-146.30;100.00;58188.94;10480864;28;20049;-84
2023/01/27 16:35:39;;;;;;;0.90;0.57;;;;;;;-146.30;100.00;58188.94;10479556;28;20044;-84
2023/01/27 16:41:42;;;;;;;0.00;0.00;;;;;;;-146.30;100.00;58188.94;10439796;28;20049;-84
2023/01/27 16:46:48;;;;;;;0.55;0.50;;;;;;;-146.30;100.00;58188.94;10454641;28;20048;-84
2023/01/27 16:51:59;;;;;;;0.00;0.00;;;;;;;-146.30;100.00;58188.94;10474020;28;20473;-85
2023/01/27 16:57:03;;;;;;;0.10;0.10;;;;;;;-146.30;100.00;58188.94;10488289;28;20120;-85
2023/01/27 17:02:14;;;;;;;0.05;0.05;;;;;;;-146.30;100.00;58188.94;10473765;28;20052;-84
2023/01/27 17:07:16;;;;;;;0.03;0.03;;;;;;;-146.30;100.00;58188.94;10500860;28;20040;-84
2023/01/27 17:12:29;;;;;;;0.00;0.00;;;;;;;-146.30;100.00;58188.94;10470828;28;20048;-84
2023/01/27 17:17:38;;;;;;;0.93;0.60;;;;;;;-146.30;100.00;58188.94;10487916;28;20037;-84
2023/01/27 17:22:42;;;;;;;0.13;0.13;;;;;;;-146.30;100.00;58188.94;10487603;28;20078;-84
2023/01/27 17:27:44;;;;;;;0.30;0.30;;;;;;;-146.30;100.00;58188.94;10470740;28;20506;-84
2023/01/27 17:32:49;;;;;;;0.10;0.10;;;;;;;-146.30;100.00;58188.94;10487194;28;20051;-84
2023/01/27 17:38:06;;;;;;;1.95;1.23;;;;;;;-146.30;100.00;58188.94;10470108;28;20064;-85
2023/01/27 17:43:20;;;;;;;0.22;0.15;;;;;;;-146.30;100.00;58188.94;10487107;28;20112;-84
2023/01/27 17:48:22;;;;;;;0.90;0.60;;;;;;;-146.30;100.00;58188.94;10487904;28;20095;-84
2023/01/27 17:53:25;;;;;;;0.15;0.13;;;;;;;-146.30;100.00;58188.94;10485862;28;20381;-85
2023/01/27 17:58:26;;;;;;;0.00;0.00;;;;;;;-146.30;100.00;58188.94;10481035;28;20036;-84
2023/01/27 18:03:34;;;;;;;0.28;0.28;;;;;;;-146.30;100.00;58188.94;10482051;28;20040;-84
2023/01/27 18:08:36;;;;;;;0.85;0.57;;;;;;;-146.30;100.00;58188.94;10465867;28;20053;-84
2023/01/27 18:13:40;;;;;;;0.00;0.00;;;;;;;-146.30;100.00;58188.94;10501269;28;20049;-84
2023/01/27 18:18:42;;;;;;;0.52;0.38;;;;;;;-146.30;100.00;58188.94;10523200;28;20102;-82
2023/01/27 18:23:48;;;;;;;2.83;0.55;;;;;;;-146.30;100.00;58188.94;10488913;28;20056;-84
2023/01/27 18:29:06;;;;;;;0.10;0.10;;;;;;;-146.30;100.00;58188.94;10480182;28;20098;-85
2023/01/27 18:34:08;;;;;;;0.47;0.35;;;;;;;-146.30;100.00;58188.94;10485646;28;20380;-84
2023/01/27 18:39:36;;;;;;;0.10;0.10;;;;;;;-146.30;100.00;58188.94;10455473;28;20049;-83
2023/01/27 18:44:38;;;;;;;0.38;0.30;;;;;;;-146.30;100.00;58188.94;10457334;28;20053;-84
2023/01/27 18:49:40;;;;;;;0.50;0.17;;;;;;;-146.30;100.00;58188.94;10478759;28;20110;-85
2023/01/27 18:54:42;;;;;;;0.45;0.45;;;;;;;-146.30;100.00;58188.94;10475206;28;20058;-85
2023/01/27 18:59:43;;;;;;;0.65;0.40;;;;;;;-146.30;100.00;58188.94;10475615;28;20044;-84
2023/01/27 19:04:45;;;;;;;1.45;0.75;;;;;;;-146.30;100.00;58188.94;10469965;28;20044;-84
2023/01/27 19:09:47;;;;;;;0.10;0.10;;;;;;;-146.30;100.00;58188.94;10485446;28;20088;-84
2023/01/27 19:14:49;;;;;;;1.00;0.47;;;;;;;-146.30;100.00;58188.94;10465605;28;20488;-84
2023/01/27 19:19:51;;;;;;;0.75;0.75;;;;;;;-146.30;100.00;58188.94;10482122;28;20041;-84
2023/01/27 19:24:52;;;;;;;1.15;0.65;;;;;;;-146.30;100.00;58188.94;10481896;28;20048;-83
2023/01/27 19:29:54;;;;;;;0.35;0.32;;;;;;;-146.30;100.00;58188.94;10465112;28;20044;-84
2023/01/27 19:34:56;;;;;;;0.45;0.40;;;;;;;-146.30;100.00;58188.94;10481803;28;20155;-84
2023/01/27 19:39:58;;;;;;;0.10;0.10;;;;;;;-146.30;100.00;58188.94;10481170;28;20043;-84
2023/01/27 19:44:59;;;;;;;0.25;0.25;;;;;;;-146.30;100.00;58188.94;10481227;28;20102;-84
2023/01/27 19:50:01;;;;;;;0.30;0.30;;;;;;;-146.30;100.00;58188.94;10464466;28;20041;-83
2023/01/27 19:55:06;;;;;;;0.20;0.20;;;;;;;-146.30;100.00;58188.94;10464974;28;20055;-86
2023/01/27 20:00:21;;;;;;;0.28;0.28;;;;;;;-146.30;100.00;58188.94;10481692;28;20400;-85
2023/01/27 20:05:25;;;;;;;0.60;0.57;;;;;;;-146.30;100.00;58188.94;10500418;28;20041;-85
2023/01/27 20:10:31;;;;;;;0.10;0.10;;;;;;;-146.30;100.00;58188.94;10499860;28;20045;-84
2023/01/27 20:15:36;;;;;;;0.90;0.80;;;;;;;-146.30;100.00;58188.94;10480151;28;20051;-85
2023/01/27 20:20:38;;;;;;;0.00;0.00;;;;;;;-146.30;100.00;58188.94;10479890;28;20136;-84
2023/01/27 20:25:39;;;;;;;0.55;0.55;;;;;;;-146.30;100.00;58188.94;10487813;28;20070;-84
2023/01/27 20:30:41;;;;;;;4.45;0.95;;;;;;;-146.30;100.00;58188.94;10488254;28;20438;-84
2023/01/27 20:35:43;;;;;;;1.27;0.38;;;;;;;-146.30;100.00;58188.94;10488023;28;20056;-83
2023/01/27 20:40:44;;;;;;;0.25;0.25;;;;;;;-146.30;100.00;58188.94;10487838;28;20055;-83
2023/01/27 20:45:46;;;;;;;0.00;0.00;;;;;;;-146.30;100.00;58188.94;10471249;28;20079;-83
2023/01/27 20:50:57;;;;;;;0.25;0.25;;;;;;;-146.30;100.00;58188.94;10487496;28;20048;-83
2023/01/27 20:55:59;;;;;;;0.93;0.85;;;;;;;-146.30;100.00;58188.94;10487332;28;20531;-84
2023/01/27 21:01:09;;;;;;;0.20;0.20;;;;;;;-146.30;100.00;58188.94;10487185;28;20050;-83
2023/01/27 21:06:12;;;;;;;0.88;0.75;;;;;;;-146.30;100.00;58188.94;10470744;28;20103;-83
2023/01/27 21:11:17;;;;;;;2.30;1.00;;;;;;;-146.30;100.00;58188.94;10486724;28;20053;-85
2023/01/27 21:16:18;;;;;;;0.00;0.00;;;;;;;-146.30;100.00;58188.94;10470476;28;20106;-85
2023/01/27 21:21:28;;;;;;;0.73;0.35;;;;;;;-146.30;100.00;58188.94;10486293;28;20052;-84
2023/01/27 21:26:31;;;;;;;0.10;0.10;;;;;;;-146.30;100.00;58188.94;10470987;28;20283;-84
2023/01/27 21:31:33;;;;;;;0.17;0.17;;;;;;;-146.30;100.00;58188.94;10486175;28;20051;-85
2023/01/27 21:36:36;;;;;;;0.17;0.17;;;;;;;-146.30;100.00;58188.94;10485707;28;20045;-85
2023/01/27 21:46:54;;;;;;;0.77;0.70;;;;;;;-146.30;100.00;58188.94;10487000;28;20060;-84
2023/01/27 21:51:56;;;;;;;0.10;0.10;;;;;;;-146.30;100.00;58188.94;10470147;28;20048;-84
2023/01/27 21:56:57;;;;;;;0.30;0.30;;;;;;;-146.30;100.00;58188.94;10489957;28;20025;-84
2023/01/27 22:01:59;;;;;;;0.47;0.45;;;;;;;-146.30;100.00;58188.94;10484558;28;20053;-84
2023/01/27 22:07:00;;;;;;;0.05;0.05;;;;;;;-146.30;100.00;58188.94;10468884;28;20066;-84
2023/01/27 22:12:04;;;;;;;0.40;0.40;;;;;;;-146.30;100.00;58188.94;10484574;28;20074;-84
2023/01/27 22:17:06;;;;;;;0.40;0.40;;;;;;;-146.30;100.00;58188.94;10484019;28;20044;-83
2023/01/27 22:22:11;;;;;;;0.20;0.20;;;;;;;-146.30;100.00;58188.94;10484082;28;20488;-84
2023/01/27 22:27:13;;;;;;;0.20;0.20;;;;;;;-146.30;100.00;58188.94;10467857;28;20399;-84
2023/01/27 22:32:14;;;;;;;2.67;0.63;;;;;;;-146.30;100.00;58188.94;10466997;28;20052;-84
2023/01/27 22:37:16;;;;;;;1.85;0.75;;;;;;;-146.30;100.00;58188.94;10482996;28;20553;-83
2023/01/27 22:42:18;;;;;;;0.73;0.70;;;;;;;-146.30;100.00;58188.94;10482959;28;20407;-85
2023/01/27 22:47:19;;;;;;;0.10;0.10;;;;;;;-146.30;100.00;58188.94;10499106;28;20068;-84
2023/01/27 22:52:21;;;;;;;0.45;0.45;;;;;;;-146.30;100.00;58188.94;10483059;28;20060;-84
2023/01/27 22:57:28;;;;;;;1.92;1.17;;;;;;;-146.30;100.00;58188.94;10466161;28;20503;-84
2023/01/27 23:02:30;;;;;;;0.30;0.30;;;;;;;-146.30;100.00;58188.94;10482567;28;20048;-84
2023/01/27 23:07:32;;;;;;;1.52;0.65;;;;;;;-146.30;100.00;58188.94;10482725;28;20090;-84
2023/01/27 23:12:34;;;;;;;1.65;0.77;;;;;;;-146.30;100.00;58188.94;10482272;28;20144;-84
2023/01/27 23:17:35;;;;;;;1.30;0.57;;;;;;;-146.30;100.00;58188.94;10482097;28;20480;-84
2023/01/27 23:22:37;;;;;;;0.25;0.22;;;;;;;-146.30;100.00;58188.94;10483353;28;20070;-84
2023/01/27 23:27:40;;;;;;;0.47;0.45;;;;;;;-146.30;100.00;58188.94;10483034;28;20499;-84
2023/01/27 23:32:42;;;;;;;1.65;1.50;;;;;;;-146.30;100.00;58188.94;10481896;28;20446;-84
2023/01/27 23:37:43;;;;;;;0.75;0.75;;;;;;;-146.30;100.00;58188.94;10481727;28;20496;-84
2023/01/27 23:42:45;;;;;;;0.98;0.43;;;;;;;-146.30;100.00;58188.94;10481378;28;20048;-84
2023/01/27 23:47:47;;;;;;;0.98;0.82;;;;;;;-146.30;100.00;58188.94;10499963;28;20041;-83
2023/01/27 23:52:50;;;;;;;0.05;0.05;;;;;;;-146.30;100.00;58188.94;10507849;28;20059;-84
2023/01/27 23:57:52;;;;;;;0.10;0.10;;;;;;;-146.30;100.00;58188.94;10492774;28;20050;-84
